Terminal Aerodrome Forecast
Issued by NWS Charleston, WV

Home | Current Version | Previous Version | Text Only | Print | Product List | Glossary On
Versions: 1 2 3 4 5 6 7 8 9 10 11 12 13 14 15 16 17 18 19 20 21 22 23 24 25 26 27 28 29 30
000
FTUS41 KRLX 210250 AAA
TAFPKB
TAF AMD
KPKB 210250Z 2103/2124 VRB03KT P6SM FEW060
     FM210700 00000KT 4SM BR FEW001
     FM210900 00000KT 2SM BR SCT001
     FM211200 VRB03KT 4SM BR SCT005
     FM211300 VRB03KT P6SM SCT060=

USA.gov is the U.S. government's official web portal to all federal, state and local government web resources and services.